Time;durP1;ratioP1;P1;durP2;ratioP2;P2;SDS_P1;SDS_P2;PMS_P1;PMS_P2;Temp;Humidity;BMP_temperature;BMP_pressure;BME280_temperature;BME280_humidity;BME280_pressure;Samples;Min_cycle;Max_cycle;Signal;HPM_P1;HPM_P2
2023/05/23 00:01:26;;;;;;;11.75;10.13;;;18.00;99.90;;;;;;6222247;28;20105;-79
2023/05/23 00:04:28;;;;;;;13.90;9.93;;;18.10;99.90;;;;;;6225164;28;20046;-79
2023/05/23 00:07:32;;;;;;;15.65;10.88;;;18.00;99.90;;;;;;6224049;28;20056;-79
2023/05/23 00:10:33;;;;;;;16.30;11.05;;;18.00;99.90;;;;;;6224370;28;20125;-79
2023/05/23 00:13:35;;;;;;;16.05;13.70;;;17.90;99.90;;;;;;6224620;28;20038;-79
2023/05/23 00:16:40;;;;;;;15.18;13.57;;;17.80;99.90;;;;;;6223985;28;20049;-79
2023/05/23 00:19:44;;;;;;;13.80;12.40;;;17.70;99.90;;;;;;6222853;28;20049;-78
2023/05/23 00:22:48;;;;;;;12.73;11.52;;;17.70;99.90;;;;;;6225082;28;20057;-79
2023/05/23 00:25:51;;;;;;;13.02;11.73;;;17.70;99.90;;;;;;6223599;28;20081;-79
2023/05/23 00:28:55;;;;;;;16.95;11.77;;;17.70;99.90;;;;;;6222605;28;20632;-79
2023/05/23 00:31:56;;;;;;;15.02;12.55;;;17.80;99.90;;;;;;6219093;28;20052;-79
2023/05/23 00:34:58;;;;;;;12.95;11.85;;;17.80;99.90;;;;;;6222208;28;20072;-79
2023/05/23 00:38:02;;;;;;;17.33;13.98;;;17.80;99.90;;;;;;6225006;28;20050;-78
2023/05/23 00:41:04;;;;;;;13.55;12.15;;;17.80;99.90;;;;;;6223285;28;20060;-79
2023/05/23 00:44:08;;;;;;;14.68;13.20;;;17.80;99.90;;;;;;6220240;28;20048;-78
2023/05/23 00:47:12;;;;;;;13.23;11.77;;;17.80;99.90;;;;;;6220431;28;20061;-78
2023/05/23 00:50:15;;;;;;;11.68;10.57;;;17.80;99.90;;;;;;6215868;28;20049;-79
2023/05/23 00:53:18;;;;;;;16.00;12.63;;;17.80;99.90;;;;;;6221914;28;20049;-79
2023/05/23 00:56:21;;;;;;;17.73;14.43;;;17.70;99.90;;;;;;6222238;28;20529;-78
2023/05/23 00:59:24;;;;;;;15.55;14.07;;;17.70;99.90;;;;;;6220548;28;20053;-79
2023/05/23 01:02:26;;;;;;;15.85;14.23;;;17.70;99.90;;;;;;6208688;28;20047;-79
2023/05/23 01:05:28;;;;;;;17.73;13.38;;;17.80;99.90;;;;;;6210622;28;20064;-79
2023/05/23 01:08:31;;;;;;;15.38;13.77;;;17.80;99.90;;;;;;6210687;28;20050;-79
2023/05/23 01:11:38;;;;;;;14.98;13.43;;;17.90;99.90;;;;;;6210617;28;20128;-78
2023/05/23 01:14:47;;;;;;;15.77;13.82;;;17.90;99.90;;;;;;6211545;28;20061;-79
2023/05/23 01:17:55;;;;;;;24.77;14.32;;;17.90;99.90;;;;;;6212156;28;20049;-79
2023/05/23 01:21:03;;;;;;;15.55;13.95;;;17.90;99.90;;;;;;6215463;28;20054;-79
2023/05/23 01:24:28;;;;;;;15.85;14.38;;;18.00;99.90;;;;;;6212550;28;20049;-79
2023/05/23 01:27:38;;;;;;;15.25;13.65;;;17.90;99.90;;;;;;6212566;28;20050;-78
2023/05/23 01:30:42;;;;;;;17.95;15.00;;;17.90;99.90;;;;;;6215768;28;20066;-78
2023/05/23 01:33:45;;;;;;;16.02;14.43;;;17.90;99.90;;;;;;6216227;28;20049;-78
2023/05/23 01:36:50;;;;;;;16.75;14.10;;;17.90;99.90;;;;;;6215119;28;20042;-79
2023/05/23 01:39:52;;;;;;;16.48;12.73;;;17.80;99.90;;;;;;6213997;28;20058;-79
2023/05/23 01:42:57;;;;;;;16.05;13.80;;;17.80;99.90;;;;;;6217329;28;20053;-78
2023/05/23 01:46:00;;;;;;;17.65;15.90;;;17.80;99.90;;;;;;6222911;28;20073;-78
2023/05/23 01:49:03;;;;;;;16.67;14.85;;;17.80;99.90;;;;;;6220261;28;20046;-78
2023/05/23 01:52:09;;;;;;;15.13;13.55;;;17.70;99.90;;;;;;6217192;28;20054;-79
2023/05/23 01:55:13;;;;;;;17.83;15.38;;;17.70;99.90;;;;;;6217148;28;20050;-78
2023/05/23 01:58:16;;;;;;;15.90;14.18;;;17.70;99.90;;;;;;6215376;28;20154;-78
2023/05/23 02:01:18;;;;;;;16.60;14.93;;;17.70;99.90;;;;;;6217314;28;20061;-78
2023/05/23 02:04:21;;;;;;;14.57;13.13;;;17.80;99.90;;;;;;6220781;28;20053;-78
2023/05/23 02:07:22;;;;;;;17.15;15.45;;;17.80;99.90;;;;;;6217666;28;20042;-79
2023/05/23 02:10:25;;;;;;;16.50;14.77;;;17.70;99.90;;;;;;6217256;28;20041;-78
2023/05/23 02:13:28;;;;;;;17.02;15.18;;;17.80;99.90;;;;;;6210762;28;20096;-78
2023/05/23 02:16:29;;;;;;;17.63;15.82;;;17.70;99.90;;;;;;6213285;28;20080;-78
2023/05/23 02:19:31;;;;;;;21.00;15.43;;;17.70;99.90;;;;;;6204390;28;20058;-78
2023/05/23 02:22:33;;;;;;;17.30;15.23;;;17.70;99.90;;;;;;6205648;28;20061;-78
2023/05/23 02:25:34;;;;;;;15.60;13.77;;;17.60;99.90;;;;;;6207340;28;20053;-78
2023/05/23 02:28:37;;;;;;;17.35;14.90;;;17.70;99.90;;;;;;6208286;28;20046;-78
2023/05/23 02:31:39;;;;;;;17.52;15.82;;;17.80;99.90;;;;;;6206931;28;20409;-79
2023/05/23 02:34:41;;;;;;;17.92;15.65;;;17.70;99.90;;;;;;6208521;28;20058;-78
2023/05/23 02:37:43;;;;;;;16.23;14.60;;;17.70;99.90;;;;;;6205535;28;20053;-78
2023/05/23 02:40:44;;;;;;;16.88;15.07;;;17.70;99.90;;;;;;6205652;28;20047;-78
2023/05/23 02:43:48;;;;;;;17.60;15.75;;;17.70;99.90;;;;;;6205064;28;20046;-78
2023/05/23 02:46:49;;;;;;;18.40;16.70;;;17.70;99.90;;;;;;6205171;28;20417;-78
2023/05/23 02:49:51;;;;;;;17.50;15.68;;;17.70;99.90;;;;;;6204224;28;20524;-78
2023/05/23 02:52:53;;;;;;;18.25;13.73;;;17.70;99.90;;;;;;6204683;28;20057;-78
2023/05/23 02:55:54;;;;;;;24.55;16.50;;;17.70;99.90;;;;;;6212617;28;20049;-78
2023/05/23 02:58:58;;;;;;;18.13;15.88;;;17.70;99.90;;;;;;6229736;28;20049;-78
2023/05/23 03:02:00;;;;;;;16.15;14.45;;;17.70;99.90;;;;;;6230012;28;20053;-79
2023/05/23 03:05:02;;;;;;;17.20;15.32;;;17.80;99.90;;;;;;6229187;28;20714;-78
2023/05/23 03:08:05;;;;;;;18.55;16.08;;;17.70;99.90;;;;;;6228626;28;20048;-78
2023/05/23 03:11:07;;;;;;;18.50;16.42;;;17.70;99.90;;;;;;6229505;28;20049;-78
2023/05/23 03:14:10;;;;;;;21.20;18.65;;;17.70;99.90;;;;;;6232384;28;20046;-78
2023/05/23 03:17:13;;;;;;;17.50;15.27;;;17.70;99.90;;;;;;6233906;28;20133;-78
2023/05/23 03:20:15;;;;;;;20.20;17.13;;;17.70;99.90;;;;;;6232338;28;20534;-79
2023/05/23 03:23:17;;;;;;;19.90;18.02;;;17.70;99.90;;;;;;6231816;28;20076;-79
2023/05/23 03:26:20;;;;;;;19.90;17.42;;;17.70;99.90;;;;;;6230079;28;20052;-78
2023/05/23 03:29:23;;;;;;;21.55;19.05;;;17.70;99.90;;;;;;6229178;28;20042;-78
2023/05/23 03:32:25;;;;;;;21.40;19.10;;;17.80;99.90;;;;;;6227109;28;20046;-79
2023/05/23 03:35:27;;;;;;;24.17;18.10;;;17.80;99.90;;;;;;6226799;28;20056;-78
2023/05/23 03:38:29;;;;;;;20.10;17.98;;;17.80;99.90;;;;;;6226767;28;20493;-77
2023/05/23 03:41:30;;;;;;;24.88;21.40;;;17.90;99.90;;;;;;6226653;28;20056;-78
2023/05/23 03:44:33;;;;;;;23.48;20.65;;;17.90;99.90;;;;;;6226546;28;20053;-78
2023/05/23 03:47:35;;;;;;;19.80;17.63;;;17.90;99.90;;;;;;6224670;28;20402;-77
2023/05/23 03:50:37;;;;;;;24.23;18.65;;;17.90;99.90;;;;;;6230975;28;20052;-78
2023/05/23 03:53:39;;;;;;;26.95;20.60;;;17.90;99.90;;;;;;6227921;28;20057;-76
2023/05/23 03:56:40;;;;;;;19.25;17.20;;;18.00;99.90;;;;;;6226787;28;20053;-78
2023/05/23 03:59:43;;;;;;;30.40;22.65;;;18.00;99.90;;;;;;6226586;28;20042;-79
2023/05/23 04:02:46;;;;;;;25.98;21.35;;;18.00;99.90;;;;;;6227655;28;20056;-78
2023/05/23 04:05:47;;;;;;;25.55;22.73;;;18.00;99.90;;;;;;6226332;28;20128;-77
2023/05/23 04:08:49;;;;;;;30.38;24.02;;;18.00;99.90;;;;;;6228359;28;20046;-78
2023/05/23 04:11:51;;;;;;;27.83;23.45;;;18.00;99.90;;;;;;6228579;28;20058;-78
2023/05/23 04:14:54;;;;;;;25.83;22.85;;;18.00;99.90;;;;;;6229435;28;20431;-78
2023/05/23 04:17:56;;;;;;;24.58;21.20;;;18.00;99.90;;;;;;6227312;28;20531;-78
2023/05/23 04:20:58;;;;;;;24.63;18.35;;;18.00;99.90;;;;;;6228231;28;20046;-79
2023/05/23 04:24:01;;;;;;;26.00;21.77;;;18.00;99.90;;;;;;6227581;28;20048;-79
2023/05/23 04:27:03;;;;;;;26.02;23.00;;;18.10;99.90;;;;;;6227294;28;20050;-78
2023/05/23 04:30:08;;;;;;;30.20;22.75;;;18.10;99.90;;;;;;6227183;28;20042;-78
2023/05/23 04:33:10;;;;;;;27.75;23.73;;;18.10;99.90;;;;;;6226310;28;20113;-78
2023/05/23 04:36:12;;;;;;;26.58;21.80;;;18.20;99.90;;;;;;6227514;28;20728;-78
2023/05/23 04:39:14;;;;;;;25.80;23.02;;;18.20;99.90;;;;;;6228667;28;20069;-80
2023/05/23 04:42:16;;;;;;;28.42;24.75;;;18.20;99.90;;;;;;6227347;28;20049;-78
2023/05/23 04:45:19;;;;;;;27.65;22.90;;;18.20;99.90;;;;;;6227214;28;20049;-80
2023/05/23 04:48:21;;;;;;;27.20;21.42;;;18.20;99.90;;;;;;6212125;28;20057;-78
2023/05/23 04:51:23;;;;;;;31.15;24.88;;;18.30;99.90;;;;;;6203174;28;20494;-78
2023/05/23 04:54:25;;;;;;;30.73;26.73;;;18.30;99.90;;;;;;6204579;28;20113;-78
2023/05/23 04:57:27;;;;;;;38.95;32.15;;;18.30;99.90;;;;;;6203811;28;20054;-78
2023/05/23 05:00:30;;;;;;;40.38;30.70;;;18.30;99.90;;;;;;6203256;28;20563;-78
2023/05/23 05:03:32;;;;;;;32.03;25.70;;;18.40;99.90;;;;;;6203559;28;20500;-78
2023/05/23 05:06:33;;;;;;;29.52;24.70;;;18.40;99.90;;;;;;6203792;28;20050;-78
2023/05/23 05:09:35;;;;;;;35.80;25.35;;;18.50;99.90;;;;;;6204394;28;20046;-79
2023/05/23 05:12:37;;;;;;;33.88;30.20;;;18.50;99.90;;;;;;6203882;28;20061;-77
2023/05/23 05:15:41;;;;;;;35.17;27.50;;;18.50;99.90;;;;;;6202804;28;20669;-77
2023/05/23 05:18:43;;;;;;;39.30;29.23;;;18.60;99.90;;;;;;6203438;28;20389;-77
2023/05/23 05:21:44;;;;;;;33.50;28.20;;;18.60;99.90;;;;;;6203083;28;20042;-78
2023/05/23 05:24:46;;;;;;;34.92;26.27;;;18.70;99.90;;;;;;6200713;28;20050;-78
2023/05/23 05:27:48;;;;;;;29.67;26.50;;;18.80;99.90;;;;;;6202092;28;20046;-78
2023/05/23 05:30:52;;;;;;;26.58;23.65;;;18.90;99.90;;;;;;6201949;28;20047;-78
2023/05/23 05:33:54;;;;;;;31.45;25.33;;;19.00;99.90;;;;;;6201166;28;20428;-78
2023/05/23 05:36:56;;;;;;;27.65;24.75;;;19.10;99.90;;;;;;6201192;28;20051;-78
2023/05/23 05:40:02;;;;;;;27.35;24.30;;;19.20;99.90;;;;;;6199939;28;20039;-78
2023/05/23 05:43:03;;;;;;;24.40;21.00;;;19.30;99.90;;;;;;6201122;28;20046;-78
2023/05/23 05:46:06;;;;;;;20.45;18.05;;;19.30;99.90;;;;;;6199867;28;20057;-78
2023/05/23 05:49:08;;;;;;;18.80;16.25;;;19.30;99.90;;;;;;6201332;28;20042;-79
2023/05/23 05:52:11;;;;;;;20.17;17.88;;;19.30;99.90;;;;;;6200810;28;20467;-78
2023/05/23 05:55:12;;;;;;;20.75;17.45;;;19.30;99.90;;;;;;6201855;28;20128;-78
2023/05/23 05:58:14;;;;;;;20.80;16.15;;;19.30;99.90;;;;;;6200495;28;20054;-78
2023/05/23 06:01:17;;;;;;;19.42;16.58;;;19.30;99.90;;;;;;6201664;28;20042;-78
2023/05/23 06:04:19;;;;;;;19.55;17.70;;;19.40;99.90;;;;;;6203133;28;20046;-78
2023/05/23 06:07:21;;;;;;;19.60;17.40;;;19.40;99.90;;;;;;6207747;28;20054;-78
2023/05/23 06:10:23;;;;;;;19.70;16.45;;;19.40;99.90;;;;;;6206729;28;20134;-79
2023/05/23 06:13:25;;;;;;;20.08;17.98;;;19.30;99.90;;;;;;6207137;28;20062;-79
2023/05/23 06:16:28;;;;;;;21.63;19.52;;;19.30;99.90;;;;;;6205531;28;20046;-80
2023/05/23 06:19:29;;;;;;;19.13;16.33;;;19.30;99.90;;;;;;6178560;28;20053;-78
2023/05/23 06:22:38;;;;;;;19.60;17.60;;;19.40;99.90;;;;;;6231296;28;20430;-77
2023/05/23 06:25:40;;;;;;;25.23;18.83;;;19.50;99.90;;;;;;6256394;28;20051;-78
2023/05/23 06:28:42;;;;;;;20.67;18.08;;;19.70;99.90;;;;;;6254820;28;20057;-80
2023/05/23 06:31:45;;;;;;;17.88;16.02;;;19.80;99.90;;;;;;6254063;28;20041;-77
2023/05/23 06:34:46;;;;;;;17.90;15.48;;;20.00;99.90;;;;;;6259427;28;20108;-78
2023/05/23 06:37:48;;;;;;;16.80;15.20;;;20.20;99.90;;;;;;6254228;28;20056;-78
2023/05/23 06:40:50;;;;;;;16.27;14.32;;;20.30;99.90;;;;;;6257274;28;20052;-78
2023/05/23 06:43:51;;;;;;;16.55;14.63;;;20.50;99.90;;;;;;6278851;28;20044;-78
2023/05/23 06:46:56;;;;;;;17.90;14.95;;;20.60;99.90;;;;;;6251386;28;20053;-78
2023/05/23 06:49:58;;;;;;;17.80;15.60;;;20.70;99.90;;;;;;6253432;28;20052;-78
2023/05/23 06:52:59;;;;;;;14.60;13.20;;;20.90;99.90;;;;;;6252538;28;20052;-77
2023/05/23 06:56:01;;;;;;;13.18;11.82;;;21.10;99.90;;;;;;6250073;28;20048;-80
2023/05/23 06:59:03;;;;;;;12.35;10.05;;;21.30;99.90;;;;;;6250016;28;20515;-80
2023/05/23 07:02:06;;;;;;;12.25;10.95;;;21.40;99.50;;;;;;6252816;28;20037;-80
2023/05/23 07:05:08;;;;;;;12.15;11.02;;;21.70;99.10;;;;;;6247577;28;20515;-81
2023/05/23 07:08:10;;;;;;;12.85;10.65;;;21.90;98.20;;;;;;6246400;28;20053;-77
2023/05/23 07:11:12;;;;;;;12.82;11.55;;;22.50;97.40;;;;;;6248787;28;20068;-78
2023/05/23 07:14:15;;;;;;;10.55;9.48;;;23.00;96.30;;;;;;6251441;28;20183;-81
2023/05/23 07:17:18;;;;;;;12.23;11.05;;;23.70;95.40;;;;;;6251979;28;20519;-81
2023/05/23 07:20:20;;;;;;;13.70;11.27;;;24.60;94.10;;;;;;6246694;28;20049;-80
2023/05/23 07:23:23;;;;;;;12.52;11.35;;;25.20;92.00;;;;;;6251472;28;20049;-77
2023/05/23 07:26:26;;;;;;;15.43;11.27;;;25.10;90.70;;;;;;6249471;28;20072;-80
2023/05/23 07:29:27;;;;;;;11.85;10.73;;;24.90;90.20;;;;;;6249537;28;20996;-80
2023/05/23 07:32:31;;;;;;;13.45;10.38;;;24.60;89.60;;;;;;6246216;28;20532;-80
2023/05/23 07:35:32;;;;;;;11.70;10.60;;;24.20;89.00;;;;;;6238385;28;20054;-79
2023/05/23 07:38:34;;;;;;;10.77;9.68;;;23.60;88.70;;;;;;6209578;28;20489;-79
2023/05/23 07:41:36;;;;;;;11.07;9.75;;;23.10;88.60;;;;;;6206689;28;20049;-79
2023/05/23 07:44:38;;;;;;;12.55;11.13;;;22.80;89.10;;;;;;6210877;28;20050;-80
2023/05/23 07:47:42;;;;;;;13.27;11.98;;;22.40;89.30;;;;;;6210377;28;20056;-79
2023/05/23 07:50:43;;;;;;;12.25;10.98;;;22.00;89.90;;;;;;6211145;28;20050;-80
2023/05/23 07:53:45;;;;;;;18.55;13.90;;;21.80;90.30;;;;;;6210415;28;20048;-79
2023/05/23 07:56:47;;;;;;;13.20;11.40;;;21.80;90.30;;;;;;6215536;28;20050;-79
2023/05/23 07:59:48;;;;;;;13.60;12.07;;;21.80;90.40;;;;;;6214354;28;20048;-78
2023/05/23 08:02:51;;;;;;;14.77;12.85;;;22.10;90.50;;;;;;6206628;28;20046;-80
2023/05/23 08:05:53;;;;;;;13.95;12.50;;;22.40;90.60;;;;;;6207409;28;20046;-79
2023/05/23 08:08:55;;;;;;;15.10;12.48;;;22.70;89.60;;;;;;6205035;28;20192;-79
2023/05/23 08:11:56;;;;;;;18.08;13.43;;;22.70;88.60;;;;;;6208191;28;20046;-79
2023/05/23 08:14:58;;;;;;;15.68;13.50;;;22.60;89.00;;;;;;6208309;28;20065;-79
2023/05/23 08:18:01;;;;;;;14.68;13.13;;;22.60;88.70;;;;;;6205498;28;20043;-79
2023/05/23 08:21:03;;;;;;;15.85;14.15;;;22.40;88.80;;;;;;6209916;28;20052;-81
2023/05/23 08:24:05;;;;;;;15.30;12.50;;;22.30;89.00;;;;;;6211797;28;20057;-81
2023/05/23 08:27:08;;;;;;;15.15;13.60;;;22.20;88.90;;;;;;6220295;28;21249;-80
2023/05/23 08:30:11;;;;;;;15.38;12.43;;;22.20;88.70;;;;;;6204745;28;20050;-76
2023/05/23 08:33:14;;;;;;;15.23;12.57;;;22.10;88.60;;;;;;6206711;28;20525;-77
2023/05/23 08:36:16;;;;;;;14.48;12.25;;;22.10;88.90;;;;;;6202209;28;20148;-77
2023/05/23 08:39:18;;;;;;;14.30;12.05;;;22.00;89.10;;;;;;6201952;28;20057;-78
2023/05/23 08:42:19;;;;;;;16.60;13.77;;;21.90;89.10;;;;;;6204922;28;20069;-77
2023/05/23 08:45:22;;;;;;;13.70;11.48;;;21.80;89.40;;;;;;6205479;28;20058;-77
2023/05/23 08:48:27;;;;;;;15.20;10.68;;;21.60;89.90;;;;;;6200778;28;20046;-76
2023/05/23 08:51:30;;;;;;;10.38;9.27;;;21.50;90.30;;;;;;6202628;28;20050;-77
2023/05/23 08:54:32;;;;;;;12.20;9.85;;;21.50;90.30;;;;;;6201311;28;20663;-76
2023/05/23 08:57:35;;;;;;;12.10;8.35;;;21.50;90.10;;;;;;6200934;28;20556;-77
2023/05/23 09:00:37;;;;;;;11.45;8.35;;;21.60;89.80;;;;;;6198594;28;20045;-77
2023/05/23 09:03:42;;;;;;;8.68;7.03;;;21.60;89.60;;;;;;6203213;28;20057;-77
2023/05/23 09:06:43;;;;;;;10.38;8.15;;;21.70;89.30;;;;;;6203614;28;20050;-76
2023/05/23 09:09:45;;;;;;;9.50;7.68;;;21.80;89.20;;;;;;6203999;28;20054;-76
2023/05/23 09:12:47;;;;;;;10.23;7.50;;;21.90;88.80;;;;;;6202046;28;20053;-77
2023/05/23 09:16:02;;;;;;;8.07;6.57;;;22.10;89.00;;;;;;6204155;28;20046;-78
2023/05/23 09:19:12;;;;;;;7.65;6.65;;;22.30;87.50;;;;;;6218344;28;20046;-78
2023/05/23 09:22:14;;;;;;;6.90;5.68;;;22.40;86.90;;;;;;6217391;28;20390;-78
2023/05/23 09:25:16;;;;;;;9.43;6.45;;;22.60;86.80;;;;;;6224761;28;20072;-77
2023/05/23 09:28:17;;;;;;;7.53;6.30;;;22.90;86.50;;;;;;6228299;28;20058;-78
2023/05/23 09:31:19;;;;;;;6.03;5.53;;;23.20;85.90;;;;;;6223265;28;20041;-77
2023/05/23 09:34:22;;;;;;;8.77;5.40;;;23.30;84.50;;;;;;6206978;28;20165;-78
2023/05/23 09:37:30;;;;;;;9.70;5.28;;;23.40;83.90;;;;;;6203592;28;20409;-81
2023/05/23 09:40:32;;;;;;;5.88;4.82;;;23.50;82.60;;;;;;6204421;28;20049;-78
2023/05/23 09:43:34;;;;;;;7.47;5.40;;;23.50;81.90;;;;;;6208207;28;20054;-75
2023/05/23 09:46:37;;;;;;;8.52;5.03;;;23.40;82.20;;;;;;6212283;28;20041;-76
2023/05/23 09:49:40;;;;;;;4.88;4.47;;;23.30;81.20;;;;;;6203567;28;20049;-78
2023/05/23 09:52:42;;;;;;;5.10;3.67;;;23.20;81.00;;;;;;6207228;28;20050;-78
2023/05/23 09:55:43;;;;;;;7.60;4.13;;;23.20;80.80;;;;;;6206598;28;20046;-78
2023/05/23 09:58:48;;;;;;;4.50;3.67;;;23.10;80.50;;;;;;6208780;28;20053;-78
2023/05/23 10:01:51;;;;;;;8.18;6.82;;;23.10;80.40;;;;;;6202232;28;20039;-76
2023/05/23 10:04:56;;;;;;;3.60;3.30;;;23.10;80.50;;;;;;6208904;28;20108;-78
2023/05/23 10:08:00;;;;;;;4.90;4.50;;;23.20;80.60;;;;;;6203924;28;20065;-77
2023/05/23 10:11:40;;;;;;;4.28;3.88;;;23.30;80.50;;;;;;6206875;28;20501;-77
2023/05/23 10:14:45;;;;;;;5.03;3.58;;;23.50;80.20;;;;;;6210527;28;20138;-78
2023/05/23 10:18:01;;;;;;;5.13;3.83;;;23.60;79.70;;;;;;6212179;28;20057;-78
2023/05/23 10:21:11;;;;;;;7.18;3.70;;;23.60;79.00;;;;;;6210903;28;20050;-77
2023/05/23 10:24:14;;;;;;;4.97;3.30;;;23.70;78.40;;;;;;6216750;28;20540;-76
2023/05/23 10:27:15;;;;;;;4.63;3.55;;;23.90;78.40;;;;;;6223416;28;20543;-78
2023/05/23 10:30:18;;;;;;;4.00;3.70;;;24.50;77.50;;;;;;6207177;28;20057;-77
2023/05/23 10:33:21;;;;;;;3.80;3.50;;;25.40;76.20;;;;;;6212569;28;20041;-76
2023/05/23 10:36:32;;;;;;;3.95;3.65;;;26.30;73.90;;;;;;6211461;28;20041;-77
2023/05/23 10:39:46;;;;;;;3.38;3.08;;;26.90;71.10;;;;;;6204512;28;20567;-76
2023/05/23 10:42:55;;;;;;;3.00;2.70;;;26.80;69.30;;;;;;6219983;28;20510;-76
2023/05/23 10:45:57;;;;;;;4.00;3.05;;;26.70;69.20;;;;;;6219616;28;20049;-78
2023/05/23 10:49:00;;;;;;;2.78;2.58;;;26.60;68.70;;;;;;6225207;28;20504;-77
2023/05/23 10:52:03;;;;;;;3.40;3.10;;;26.40;68.10;;;;;;6225955;28;20057;-78
2023/05/23 10:55:13;;;;;;;3.42;3.00;;;26.30;67.70;;;;;;6212630;28;20081;-78
2023/05/23 10:58:18;;;;;;;2.92;2.72;;;26.00;68.00;;;;;;6206580;28;20053;-77
2023/05/23 11:01:20;;;;;;;3.53;3.17;;;25.70;68.20;;;;;;6206005;28;20059;-78
2023/05/23 11:04:26;;;;;;;4.40;3.42;;;25.70;68.40;;;;;;6200658;28;20050;-77
2023/05/23 11:07:33;;;;;;;2.63;2.42;;;25.80;68.50;;;;;;6203051;28;20131;-76
2023/05/23 11:10:53;;;;;;;3.95;3.60;;;26.30;67.90;;;;;;6220914;28;20049;-78
2023/05/23 11:13:59;;;;;;;3.47;3.17;;;26.90;66.60;;;;;;6221933;28;20101;-77
2023/05/23 11:17:15;;;;;;;3.13;2.70;;;27.20;66.70;;;;;;6223825;28;20050;-78
2023/05/23 11:20:22;;;;;;;4.65;3.30;;;27.30;65.50;;;;;;6215261;28;20061;-76
2023/05/23 11:23:40;;;;;;;3.47;3.17;;;27.10;65.00;;;;;;6205876;28;20648;-77
2023/05/23 11:26:52;;;;;;;4.63;3.67;;;26.90;64.60;;;;;;6239824;28;20065;-78
2023/05/23 11:30:02;;;;;;;3.35;3.08;;;26.70;65.00;;;;;;6222493;28;20091;-78
2023/05/23 11:33:12;;;;;;;6.35;3.05;;;26.40;65.40;;;;;;6241581;28;20049;-78
2023/05/23 11:36:14;;;;;;;4.00;3.50;;;26.10;65.60;;;;;;6241461;28;20042;-78
2023/05/23 11:39:18;;;;;;;3.97;3.33;;;25.90;66.30;;;;;;6226624;28;20046;-78
2023/05/23 11:42:20;;;;;;;6.32;2.83;;;25.90;66.60;;;;;;6227029;28;20492;-77
2023/05/23 11:45:22;;;;;;;4.20;3.22;;;25.80;66.70;;;;;;6231352;28;20432;-78
2023/05/23 11:48:24;;;;;;;4.90;4.20;;;25.80;67.00;;;;;;6231460;28;20038;-77
2023/05/23 11:51:26;;;;;;;3.80;3.28;;;26.10;67.00;;;;;;6233412;28;20087;-81
2023/05/23 11:54:29;;;;;;;4.47;2.63;;;26.50;66.70;;;;;;6236263;28;20046;-81
2023/05/23 11:57:31;;;;;;;7.53;3.90;;;27.00;65.80;;;;;;6214138;28;20145;-81
2023/05/23 12:00:33;;;;;;;9.75;6.43;;;27.30;64.70;;;;;;6209515;28;20061;-79
2023/05/23 12:03:36;;;;;;;6.32;5.05;;;27.00;64.20;;;;;;6206029;28;20057;-79
2023/05/23 12:06:40;;;;;;;5.35;3.60;;;26.50;64.50;;;;;;6231843;28;20105;-79
2023/05/23 12:09:43;;;;;;;6.53;2.65;;;26.00;65.00;;;;;;6230570;28;20049;-81
2023/05/23 12:12:45;;;;;;;3.30;3.00;;;25.60;65.90;;;;;;6249112;28;20491;-79
2023/05/23 12:15:47;;;;;;;9.20;4.15;;;25.20;66.50;;;;;;6245262;28;20196;-78
2023/05/23 12:18:49;;;;;;;2.97;2.70;;;24.70;67.20;;;;;;6222199;28;20124;-80
2023/05/23 12:21:51;;;;;;;9.02;6.70;;;24.30;68.00;;;;;;6224918;28;20492;-81
2023/05/23 12:24:57;;;;;;;3.47;3.17;;;23.90;68.70;;;;;;6222537;28;20045;-79
2023/05/23 12:27:59;;;;;;;7.35;6.57;;;23.60;69.50;;;;;;6229191;28;20052;-79
2023/05/23 12:31:09;;;;;;;5.38;3.33;;;23.50;69.70;;;;;;6249776;28;20044;-79
2023/05/23 12:34:12;;;;;;;4.20;3.38;;;23.40;70.00;;;;;;6245506;28;20486;-79
2023/05/23 12:37:14;;;;;;;4.80;3.70;;;23.40;70.10;;;;;;6238509;28;20041;-79
2023/05/23 12:40:18;;;;;;;4.25;3.63;;;23.40;70.40;;;;;;6232912;28;20050;-79
2023/05/23 12:43:20;;;;;;;4.22;3.83;;;23.40;70.60;;;;;;6232088;28;20408;-79
2023/05/23 12:46:23;;;;;;;4.05;3.55;;;23.40;71.10;;;;;;6234042;28;20080;-78
2023/05/23 12:49:25;;;;;;;4.57;4.00;;;23.50;71.20;;;;;;6231436;28;20041;-78
2023/05/23 12:52:26;;;;;;;3.60;3.30;;;23.70;71.10;;;;;;6230557;28;20048;-79
2023/05/23 12:55:29;;;;;;;7.22;2.70;;;23.90;70.80;;;;;;6231101;28;20053;-84
2023/05/23 12:58:33;;;;;;;4.20;3.78;;;24.00;70.60;;;;;;6234248;28;20092;-80
2023/05/23 13:01:34;;;;;;;6.60;3.50;;;24.20;70.60;;;;;;6235239;28;20073;-79
2023/05/23 13:04:36;;;;;;;3.20;3.00;;;24.50;70.50;;;;;;6233768;28;20052;-79
2023/05/23 13:07:38;;;;;;;3.45;3.00;;;24.70;70.00;;;;;;6233394;28;20041;-80
2023/05/23 13:10:41;;;;;;;5.45;3.17;;;24.90;69.40;;;;;;6238083;28;20492;-82
2023/05/23 13:13:43;;;;;;;3.55;3.00;;;25.10;69.00;;;;;;6231179;28;20053;-82
2023/05/23 13:16:44;;;;;;;3.28;2.97;;;25.30;68.50;;;;;;6231361;28;20049;-80
2023/05/23 13:19:46;;;;;;;6.20;3.30;;;25.50;68.10;;;;;;6237660;28;20053;-81
2023/05/23 13:22:48;;;;;;;3.95;3.42;;;25.50;67.50;;;;;;6233256;28;20408;-79
2023/05/23 13:25:52;;;;;;;3.17;2.83;;;25.60;66.70;;;;;;6237522;28;20389;-81
2023/05/23 13:28:53;;;;;;;5.05;3.72;;;25.70;65.90;;;;;;6232862;28;20318;-82
2023/05/23 13:31:55;;;;;;;4.25;3.85;;;25.80;65.40;;;;;;6235435;28;20046;-81
2023/05/23 13:34:57;;;;;;;3.70;3.30;;;25.80;65.00;;;;;;6229840;28;21756;-81
2023/05/23 13:37:59;;;;;;;4.05;3.67;;;25.80;64.90;;;;;;6232089;28;20061;-80
2023/05/23 13:41:02;;;;;;;4.18;2.97;;;25.80;64.90;;;;;;6236345;28;20057;-81
2023/05/23 13:44:03;;;;;;;3.88;3.17;;;25.70;65.00;;;;;;6234088;28;20056;-80
2023/05/23 13:47:12;;;;;;;5.35;3.83;;;25.60;65.10;;;;;;6231651;28;20045;-80
2023/05/23 13:50:14;;;;;;;3.88;3.35;;;25.60;65.10;;;;;;6234372;28;20068;-80
2023/05/23 13:53:16;;;;;;;11.35;3.30;;;25.60;65.20;;;;;;6232280;28;20105;-80
2023/05/23 13:56:19;;;;;;;3.63;3.30;;;25.60;65.10;;;;;;6235018;28;20065;-80
2023/05/23 13:59:21;;;;;;;4.07;3.50;;;25.80;65.10;;;;;;6232188;28;20158;-80
2023/05/23 14:02:23;;;;;;;6.25;3.92;;;26.00;64.80;;;;;;6234082;28;20041;-79
2023/05/23 14:05:24;;;;;;;6.20;3.40;;;26.30;64.20;;;;;;6229706;28;20042;-81
2023/05/23 14:08:26;;;;;;;5.28;3.72;;;26.40;63.70;;;;;;6231451;28;20060;-82
2023/05/23 14:11:29;;;;;;;4.53;3.38;;;26.40;63.30;;;;;;6232921;28;20123;-78
2023/05/23 14:14:31;;;;;;;3.80;3.33;;;26.20;63.50;;;;;;6240443;28;20049;-80
2023/05/23 14:17:32;;;;;;;4.00;3.70;;;25.80;63.70;;;;;;6240698;28;20037;-81
2023/05/23 14:20:34;;;;;;;30.63;5.00;;;25.50;64.30;;;;;;6236562;28;20050;-80
2023/05/23 14:23:36;;;;;;;8.38;5.50;;;25.20;64.80;;;;;;6234831;28;20045;-79
2023/05/23 14:26:39;;;;;;;5.03;3.75;;;25.10;65.20;;;;;;6232571;28;20057;-79
2023/05/23 14:29:45;;;;;;;7.00;4.97;;;25.00;65.40;;;;;;6236134;28;20041;-81
2023/05/23 14:32:46;;;;;;;5.57;4.50;;;24.80;65.40;;;;;;6234252;28;20061;-80
2023/05/23 14:35:48;;;;;;;4.78;4.15;;;24.60;65.60;;;;;;6236152;28;20046;-78
2023/05/23 14:38:50;;;;;;;5.55;5.05;;;24.40;65.90;;;;;;6233324;28;20041;-82
2023/05/23 14:41:53;;;;;;;14.55;5.55;;;24.50;66.80;;;;;;6236196;28;20048;-81
2023/05/23 14:44:55;;;;;;;11.52;5.45;;;24.50;66.10;;;;;;6234452;28;20412;-79
2023/05/23 14:47:57;;;;;;;7.20;5.70;;;24.60;66.00;;;;;;6233586;28;20052;-81
2023/05/23 14:51:00;;;;;;;9.77;5.18;;;24.70;66.00;;;;;;6244891;28;20056;-81
2023/05/23 14:54:02;;;;;;;8.95;5.15;;;24.80;66.00;;;;;;6241320;28;20068;-82
2023/05/23 14:57:05;;;;;;;6.30;5.25;;;25.00;66.00;;;;;;6234593;28;20052;-81
2023/05/23 15:00:08;;;;;;;6.53;5.70;;;25.30;65.90;;;;;;6239491;28;20053;-81
2023/05/23 15:03:10;;;;;;;7.38;5.55;;;25.20;65.70;;;;;;6233606;28;20469;-83
2023/05/23 15:06:12;;;;;;;6.43;4.93;;;25.10;66.00;;;;;;6228537;28;20045;-85
2023/05/23 15:09:13;;;;;;;5.40;4.90;;;25.00;66.50;;;;;;6249957;28;20038;-82
2023/05/23 15:12:16;;;;;;;6.30;5.22;;;24.90;66.60;;;;;;6234717;28;20038;-80
2023/05/23 15:15:21;;;;;;;5.53;4.80;;;24.90;66.60;;;;;;6230965;28;20053;-79
2023/05/23 15:18:23;;;;;;;5.32;4.43;;;24.80;66.40;;;;;;6259310;28;20045;-82
2023/05/23 15:21:25;;;;;;;10.07;4.82;;;24.70;66.90;;;;;;6253916;28;20631;-82
2023/05/23 15:24:27;;;;;;;6.78;5.90;;;24.50;66.80;;;;;;6246014;28;20053;-83
2023/05/23 15:27:30;;;;;;;6.22;5.63;;;24.30;66.90;;;;;;6233519;28;20073;-80
2023/05/23 15:30:31;;;;;;;9.77;6.65;;;24.30;67.20;;;;;;6261032;28;20037;-83
2023/05/23 15:33:33;;;;;;;16.42;5.57;;;24.10;67.10;;;;;;6226677;28;20049;-81
2023/05/23 15:36:35;;;;;;;16.20;6.00;;;23.90;67.70;;;;;;6212137;28;20049;-82
2023/05/23 15:39:37;;;;;;;9.15;6.15;;;23.90;67.80;;;;;;6212963;28;20162;-81